Terminal Aerodrome Forecast
Issued by NWS Billings, MT

Home | Current Version | Previous Version | Text Only | Print | Product List | Glossary Off
Versions: 1 2 3 4 5 6 7 8 9 10 11 12 13 14 15 16 17 18 19 20

000
FTUS45 KBYZ 292256 AAC
TAFMLS
TAF AMD
KMLS 292256Z 2923/3018 09008KT P6SM VCTS BKN080CB
      TEMPO 2923/3001 -TSRA BKN060CB
     FM300100 04006KT P6SM SCT080
     FM300600 13006KT P6SM SKC=

USA.gov is the U.S. government's official web portal to all federal, state and local government web resources and services.